sensor_id;sensor_type;location;lat;lon;timestamp;pressure;altitude;pressure_sealevel;temperature;humidity
75247;BME280;63844;50.042;19.224;2024-03-22T00:00:11;99114.06;;;8.60;82.17
75247;BME280;63844;50.042;19.224;2024-03-22T00:02:08;99114.42;;;8.63;82.77
75247;BME280;63844;50.042;19.224;2024-03-22T00:03:47;99114.03;;;8.67;83.60
75247;BME280;63844;50.042;19.224;2024-03-22T00:05:23;99112.34;;;8.72;83.98
75247;BME280;63844;50.042;19.224;2024-03-22T00:07:00;99109.84;;;8.79;83.68
75247;BME280;63844;50.042;19.224;2024-03-22T00:08:36;99107.86;;;8.89;83.13
75247;BME280;63844;50.042;19.224;2024-03-22T00:10:13;99109.49;;;8.97;83.06
75247;BME280;63844;50.042;19.224;2024-03-22T00:11:50;99110.89;;;9.04;82.32
75247;BME280;63844;50.042;19.224;2024-03-22T00:13:26;99109.48;;;9.10;82.51
75247;BME280;63844;50.042;19.224;2024-03-22T00:15:03;99108.73;;;9.16;82.24
75247;BME280;63844;50.042;19.224;2024-03-22T00:16:39;99104.95;;;9.24;82.71
75247;BME280;63844;50.042;19.224;2024-03-22T00:18:16;99105.22;;;9.29;82.04
75247;BME280;63844;50.042;19.224;2024-03-22T00:19:52;99107.09;;;9.33;82.17
75247;BME280;63844;50.042;19.224;2024-03-22T00:21:29;99103.90;;;9.39;82.44
75247;BME280;63844;50.042;19.224;2024-03-22T00:23:05;99103.16;;;9.45;82.50
75247;BME280;63844;50.042;19.224;2024-03-22T00:24:42;99100.30;;;9.49;81.76
75247;BME280;63844;50.042;19.224;2024-03-22T00:26:18;99094.33;;;9.51;81.86
75247;BME280;63844;50.042;19.224;2024-03-22T00:27:55;99096.05;;;9.55;82.59
75247;BME280;63844;50.042;19.224;2024-03-22T00:29:31;99097.80;;;9.58;82.30
75247;BME280;63844;50.042;19.224;2024-03-22T00:31:10;99095.51;;;9.61;82.34
75247;BME280;63844;50.042;19.224;2024-03-22T00:32:47;99092.66;;;9.64;82.10
75247;BME280;63844;50.042;19.224;2024-03-22T00:34:23;99090.95;;;9.66;82.50
75247;BME280;63844;50.042;19.224;2024-03-22T00:36:00;99091.09;;;9.66;82.32
75247;BME280;63844;50.042;19.224;2024-03-22T00:37:36;99089.79;;;9.68;82.46
75247;BME280;63844;50.042;19.224;2024-03-22T00:39:12;99093.12;;;9.71;82.75
75247;BME280;63844;50.042;19.224;2024-03-22T00:40:49;99092.09;;;9.74;82.24
75247;BME280;63844;50.042;19.224;2024-03-22T00:42:25;99090.69;;;9.77;81.38
75247;BME280;63844;50.042;19.224;2024-03-22T00:44:02;99090.61;;;9.78;82.82
75247;BME280;63844;50.042;19.224;2024-03-22T00:45:38;99092.35;;;9.78;83.52
75247;BME280;63844;50.042;19.224;2024-03-22T00:47:14;99089.45;;;9.79;83.47
75247;BME280;63844;50.042;19.224;2024-03-22T00:48:51;99096.06;;;9.81;82.53
75247;BME280;63844;50.042;19.224;2024-03-22T00:50:27;99094.40;;;9.82;83.23
75247;BME280;63844;50.042;19.224;2024-03-22T00:52:03;99092.61;;;9.83;84.34
75247;BME280;63844;50.042;19.224;2024-03-22T00:53:40;99089.27;;;9.85;84.39
75247;BME280;63844;50.042;19.224;2024-03-22T00:55:16;99087.21;;;9.87;84.56
75247;BME280;63844;50.042;19.224;2024-03-22T00:56:52;99086.63;;;9.88;84.90
75247;BME280;63844;50.042;19.224;2024-03-22T00:58:29;99085.98;;;9.89;84.32
75247;BME280;63844;50.042;19.224;2024-03-22T01:00:06;99087.48;;;9.91;85.19
75247;BME280;63844;50.042;19.224;2024-03-22T01:01:42;99087.77;;;9.92;84.52
75247;BME280;63844;50.042;19.224;2024-03-22T01:03:19;99090.37;;;9.93;84.54
75247;BME280;63844;50.042;19.224;2024-03-22T01:04:55;99090.91;;;9.93;84.75
75247;BME280;63844;50.042;19.224;2024-03-22T01:06:31;99093.70;;;9.93;84.68
75247;BME280;63844;50.042;19.224;2024-03-22T01:08:08;99092.64;;;9.93;85.55
75247;BME280;63844;50.042;19.224;2024-03-22T01:09:44;99093.86;;;9.94;85.82
75247;BME280;63844;50.042;19.224;2024-03-22T01:11:21;99093.77;;;9.95;85.49
75247;BME280;63844;50.042;19.224;2024-03-22T01:12:57;99093.67;;;9.96;85.48
75247;BME280;63844;50.042;19.224;2024-03-22T01:14:33;99091.55;;;9.96;85.41
75247;BME280;63844;50.042;19.224;2024-03-22T01:16:10;99095.89;;;9.98;84.64
75247;BME280;63844;50.042;19.224;2024-03-22T01:17:46;99099.31;;;9.97;85.74
75247;BME280;63844;50.042;19.224;2024-03-22T01:19:22;99097.23;;;9.96;86.67
75247;BME280;63844;50.042;19.224;2024-03-22T01:20:59;99094.92;;;9.96;85.90
75247;BME280;63844;50.042;19.224;2024-03-22T01:22:35;99097.64;;;9.98;86.63
75247;BME280;63844;50.042;19.224;2024-03-22T01:24:13;99098.68;;;9.99;86.16
75247;BME280;63844;50.042;19.224;2024-03-22T01:25:49;99097.02;;;10.00;85.59
75247;BME280;63844;50.042;19.224;2024-03-22T01:27:26;99094.19;;;10.00;86.13
75247;BME280;63844;50.042;19.224;2024-03-22T01:29:02;99092.30;;;9.99;85.55
75247;BME280;63844;50.042;19.224;2024-03-22T01:30:38;99091.44;;;9.98;85.21
75247;BME280;63844;50.042;19.224;2024-03-22T01:32:15;99090.25;;;9.98;85.16
75247;BME280;63844;50.042;19.224;2024-03-22T01:33:51;99090.45;;;9.98;84.90
75247;BME280;63844;50.042;19.224;2024-03-22T01:35:28;99091.90;;;9.97;85.26
75247;BME280;63844;50.042;19.224;2024-03-22T01:37:04;99087.59;;;9.95;86.19
75247;BME280;63844;50.042;19.224;2024-03-22T01:38:41;99088.61;;;9.95;85.60
75247;BME280;63844;50.042;19.224;2024-03-22T01:40:17;99089.14;;;9.95;87.46
75247;BME280;63844;50.042;19.224;2024-03-22T01:41:54;99087.33;;;9.96;86.30
75247;BME280;63844;50.042;19.224;2024-03-22T01:43:30;99089.97;;;9.97;87.04
75247;BME280;63844;50.042;19.224;2024-03-22T01:45:07;99091.38;;;9.96;86.18
75247;BME280;63844;50.042;19.224;2024-03-22T01:46:46;99089.63;;;9.96;87.10
75247;BME280;63844;50.042;19.224;2024-03-22T01:48:24;99089.78;;;9.97;85.75
75247;BME280;63844;50.042;19.224;2024-03-22T01:50:01;99089.81;;;9.96;86.51
75247;BME280;63844;50.042;19.224;2024-03-22T01:51:37;99087.56;;;9.95;87.42
75247;BME280;63844;50.042;19.224;2024-03-22T01:53:14;99084.38;;;9.95;87.93
75247;BME280;63844;50.042;19.224;2024-03-22T01:54:50;99086.73;;;9.95;88.31
75247;BME280;63844;50.042;19.224;2024-03-22T01:56:27;99086.71;;;9.95;88.17
75247;BME280;63844;50.042;19.224;2024-03-22T01:58:04;99090.06;;;9.95;88.26
75247;BME280;63844;50.042;19.224;2024-03-22T01:59:41;99092.90;;;9.95;88.48
75247;BME280;63844;50.042;19.224;2024-03-22T02:01:17;99092.59;;;9.94;89.29
75247;BME280;63844;50.042;19.224;2024-03-22T02:02:53;99092.29;;;9.94;88.80
75247;BME280;63844;50.042;19.224;2024-03-22T02:04:30;99097.63;;;9.93;88.76
75247;BME280;63844;50.042;19.224;2024-03-22T02:06:06;99094.34;;;9.92;88.54
75247;BME280;63844;50.042;19.224;2024-03-22T02:07:43;99097.17;;;9.92;89.06
75247;BME280;63844;50.042;19.224;2024-03-22T02:09:20;99094.38;;;9.91;88.54
75247;BME280;63844;50.042;19.224;2024-03-22T02:10:57;99095.52;;;9.90;88.84
75247;BME280;63844;50.042;19.224;2024-03-22T02:12:34;99096.66;;;9.88;90.29
75247;BME280;63844;50.042;19.224;2024-03-22T02:14:10;99096.98;;;9.89;90.59
75247;BME280;63844;50.042;19.224;2024-03-22T02:15:46;99098.91;;;9.89;90.63
75247;BME280;63844;50.042;19.224;2024-03-22T02:17:23;99102.64;;;9.89;90.73
75247;BME280;63844;50.042;19.224;2024-03-22T02:18:59;99101.23;;;9.89;90.83
75247;BME280;63844;50.042;19.224;2024-03-22T02:20:35;99103.13;;;9.89;89.79
75247;BME280;63844;50.042;19.224;2024-03-22T02:22:12;99100.19;;;9.89;91.19
75247;BME280;63844;50.042;19.224;2024-03-22T02:23:48;99098.04;;;9.89;91.40
75247;BME280;63844;50.042;19.224;2024-03-22T02:25:24;99100.48;;;9.89;91.11
75247;BME280;63844;50.042;19.224;2024-03-22T02:27:01;99097.34;;;9.89;90.94
75247;BME280;63844;50.042;19.224;2024-03-22T02:28:37;99097.36;;;9.89;91.83
75247;BME280;63844;50.042;19.224;2024-03-22T02:30:13;99098.21;;;9.89;92.10
75247;BME280;63844;50.042;19.224;2024-03-22T02:31:50;99099.10;;;9.89;92.39
75247;BME280;63844;50.042;19.224;2024-03-22T02:33:26;99096.55;;;9.90;92.55
75247;BME280;63844;50.042;19.224;2024-03-22T02:35:03;99098.42;;;9.88;93.64
75247;BME280;63844;50.042;19.224;2024-03-22T02:36:39;99094.34;;;9.89;93.19
75247;BME280;63844;50.042;19.224;2024-03-22T02:38:16;99098.94;;;9.89;91.96
75247;BME280;63844;50.042;19.224;2024-03-22T02:39:53;99096.28;;;9.89;91.61
75247;BME280;63844;50.042;19.224;2024-03-22T02:41:30;99095.27;;;9.88;92.40
75247;BME280;63844;50.042;19.224;2024-03-22T02:43:06;99092.81;;;9.87;93.18
75247;BME280;63844;50.042;19.224;2024-03-22T02:44:42;99094.81;;;9.87;93.52
75247;BME280;63844;50.042;19.224;2024-03-22T02:46:19;99093.44;;;9.86;94.77
75247;BME280;63844;50.042;19.224;2024-03-22T02:47:55;99097.80;;;9.87;94.97
75247;BME280;63844;50.042;19.224;2024-03-22T02:49:32;99098.83;;;9.87;94.87
75247;BME280;63844;50.042;19.224;2024-03-22T02:51:08;99098.80;;;9.88;95.77
75247;BME280;63844;50.042;19.224;2024-03-22T02:52:44;99100.01;;;9.88;94.52
75247;BME280;63844;50.042;19.224;2024-03-22T02:54:21;99096.80;;;9.89;94.06
75247;BME280;63844;50.042;19.224;2024-03-22T02:56:00;99097.15;;;9.89;95.85
75247;BME280;63844;50.042;19.224;2024-03-22T02:57:36;99097.90;;;9.88;95.81
75247;BME280;63844;50.042;19.224;2024-03-22T02:59:13;99093.94;;;9.86;97.83
75247;BME280;63844;50.042;19.224;2024-03-22T03:00:49;99093.71;;;9.88;98.22
75247;BME280;63844;50.042;19.224;2024-03-22T03:02:26;99091.36;;;9.88;97.20
75247;BME280;63844;50.042;19.224;2024-03-22T03:04:02;99089.38;;;9.89;97.59
75247;BME280;63844;50.042;19.224;2024-03-22T03:05:38;99089.05;;;9.89;98.27
75247;BME280;63844;50.042;19.224;2024-03-22T03:07:15;99086.78;;;9.88;97.84
75247;BME280;63844;50.042;19.224;2024-03-22T03:08:51;99091.95;;;9.88;97.32
75247;BME280;63844;50.042;19.224;2024-03-22T03:10:27;99089.81;;;9.88;98.55
75247;BME280;63844;50.042;19.224;2024-03-22T03:12:04;99090.33;;;9.88;97.59
75247;BME280;63844;50.042;19.224;2024-03-22T03:13:41;99089.10;;;9.88;97.42
75247;BME280;63844;50.042;19.224;2024-03-22T03:15:18;99091.42;;;9.88;98.32
75247;BME280;63844;50.042;19.224;2024-03-22T03:16:54;99087.56;;;9.87;98.88
75247;BME280;63844;50.042;19.224;2024-03-22T03:18:30;99086.93;;;9.86;98.24
75247;BME280;63844;50.042;19.224;2024-03-22T03:20:07;99089.45;;;9.85;99.34
75247;BME280;63844;50.042;19.224;2024-03-22T03:21:46;99089.31;;;9.84;98.41
75247;BME280;63844;50.042;19.224;2024-03-22T03:23:22;99089.66;;;9.84;98.14
75247;BME280;63844;50.042;19.224;2024-03-22T03:24:58;99087.32;;;9.82;97.74
75247;BME280;63844;50.042;19.224;2024-03-22T03:26:35;99084.85;;;9.82;98.22
75247;BME280;63844;50.042;19.224;2024-03-22T03:28:11;99080.66;;;9.81;98.31
75247;BME280;63844;50.042;19.224;2024-03-22T03:29:49;99081.85;;;9.79;99.10
75247;BME280;63844;50.042;19.224;2024-03-22T03:31:25;99077.86;;;9.78;97.86
75247;BME280;63844;50.042;19.224;2024-03-22T03:33:02;99076.58;;;9.76;98.26
75247;BME280;63844;50.042;19.224;2024-03-22T03:34:38;99074.41;;;9.74;99.43
75247;BME280;63844;50.042;19.224;2024-03-22T03:36:15;99073.86;;;9.71;99.06
75247;BME280;63844;50.042;19.224;2024-03-22T03:37:53;99074.98;;;9.70;98.10
75247;BME280;63844;50.042;19.224;2024-03-22T03:39:30;99077.58;;;9.68;99.26
75247;BME280;63844;50.042;19.224;2024-03-22T03:41:06;99080.66;;;9.67;99.42
75247;BME280;63844;50.042;19.224;2024-03-22T03:42:42;99079.52;;;9.65;99.98
75247;BME280;63844;50.042;19.224;2024-03-22T03:44:19;99080.99;;;9.64;100.00
75247;BME280;63844;50.042;19.224;2024-03-22T03:45:55;99082.42;;;9.64;99.93
75247;BME280;63844;50.042;19.224;2024-03-22T03:47:32;99081.63;;;9.62;100.00
75247;BME280;63844;50.042;19.224;2024-03-22T03:49:09;99079.56;;;9.61;100.00
75247;BME280;63844;50.042;19.224;2024-03-22T03:50:53;99084.84;;;9.62;100.00
75247;BME280;63844;50.042;19.224;2024-03-22T03:52:31;99080.28;;;9.61;100.00
75247;BME280;63844;50.042;19.224;2024-03-22T03:54:07;99081.59;;;9.60;100.00
75247;BME280;63844;50.042;19.224;2024-03-22T03:55:43;99078.05;;;9.60;100.00
75247;BME280;63844;50.042;19.224;2024-03-22T03:57:20;99076.84;;;9.59;100.00
75247;BME280;63844;50.042;19.224;2024-03-22T03:58:56;99080.45;;;9.59;100.00
75247;BME280;63844;50.042;19.224;2024-03-22T04:00:32;99078.80;;;9.57;100.00
75247;BME280;63844;50.042;19.224;2024-03-22T04:02:09;99079.20;;;9.56;100.00
75247;BME280;63844;50.042;19.224;2024-03-22T04:03:45;99079.02;;;9.56;99.98
75247;BME280;63844;50.042;19.224;2024-03-22T04:05:21;99078.34;;;9.55;100.00
75247;BME280;63844;50.042;19.224;2024-03-22T04:06:58;99079.09;;;9.55;100.00
75247;BME280;63844;50.042;19.224;2024-03-22T04:08:34;99078.55;;;9.55;100.00
75247;BME280;63844;50.042;19.224;2024-03-22T04:10:11;99075.26;;;9.54;100.00
75247;BME280;63844;50.042;19.224;2024-03-22T04:11:48;99075.59;;;9.54;99.99
75247;BME280;63844;50.042;19.224;2024-03-22T04:13:25;99077.88;;;9.54;100.00
75247;BME280;63844;50.042;19.224;2024-03-22T04:15:01;99071.83;;;9.52;100.00
75247;BME280;63844;50.042;19.224;2024-03-22T04:16:38;99079.90;;;9.53;100.00
75247;BME280;63844;50.042;19.224;2024-03-22T04:18:14;99077.23;;;9.53;100.00
75247;BME280;63844;50.042;19.224;2024-03-22T04:19:51;99075.68;;;9.53;100.00
75247;BME280;63844;50.042;19.224;2024-03-22T04:21:28;99075.95;;;9.51;100.00
75247;BME280;63844;50.042;19.224;2024-03-22T04:23:04;99077.16;;;9.52;100.00
75247;BME280;63844;50.042;19.224;2024-03-22T04:24:40;99074.77;;;9.50;100.00
75247;BME280;63844;50.042;19.224;2024-03-22T04:26:17;99077.40;;;9.50;100.00
75247;BME280;63844;50.042;19.224;2024-03-22T04:27:53;99078.14;;;9.50;100.00
75247;BME280;63844;50.042;19.224;2024-03-22T04:29:30;99074.81;;;9.50;100.00
75247;BME280;63844;50.042;19.224;2024-03-22T04:31:08;99075.55;;;9.49;100.00
75247;BME280;63844;50.042;19.224;2024-03-22T04:32:48;99074.71;;;9.48;100.00
75247;BME280;63844;50.042;19.224;2024-03-22T04:34:24;99072.66;;;9.47;100.00
75247;BME280;63844;50.042;19.224;2024-03-22T04:36:01;99071.66;;;9.46;100.00
75247;BME280;63844;50.042;19.224;2024-03-22T04:37:38;99071.33;;;9.46;100.00
75247;BME280;63844;50.042;19.224;2024-03-22T04:39:14;99069.25;;;9.45;100.00
75247;BME280;63844;50.042;19.224;2024-03-22T04:40:53;99070.23;;;9.44;100.00
75247;BME280;63844;50.042;19.224;2024-03-22T04:42:30;99071.13;;;9.43;100.00
75247;BME280;63844;50.042;19.224;2024-03-22T04:44:06;99071.77;;;9.41;100.00
75247;BME280;63844;50.042;19.224;2024-03-22T04:45:43;99072.02;;;9.40;100.00
75247;BME280;63844;50.042;19.224;2024-03-22T04:47:20;99072.41;;;9.39;100.00
75247;BME280;63844;50.042;19.224;2024-03-22T04:48:57;99071.90;;;9.39;100.00
75247;BME280;63844;50.042;19.224;2024-03-22T04:50:33;99070.72;;;9.38;100.00
75247;BME280;63844;50.042;19.224;2024-03-22T04:52:09;99074.71;;;9.37;100.00
75247;BME280;63844;50.042;19.224;2024-03-22T04:53:46;99078.45;;;9.36;100.00
75247;BME280;63844;50.042;19.224;2024-03-22T04:55:22;99080.91;;;9.36;100.00
75247;BME280;63844;50.042;19.224;2024-03-22T04:56:58;99077.77;;;9.35;100.00
75247;BME280;63844;50.042;19.224;2024-03-22T04:58:35;99081.95;;;9.36;100.00
75247;BME280;63844;50.042;19.224;2024-03-22T05:00:12;99079.85;;;9.36;100.00
75247;BME280;63844;50.042;19.224;2024-03-22T05:01:49;99083.98;;;9.35;100.00
75247;BME280;63844;50.042;19.224;2024-03-22T05:03:25;99085.96;;;9.35;100.00
75247;BME280;63844;50.042;19.224;2024-03-22T05:05:01;99087.67;;;9.36;100.00
75247;BME280;63844;50.042;19.224;2024-03-22T05:06:38;99091.16;;;9.36;100.00
75247;BME280;63844;50.042;19.224;2024-03-22T05:08:14;99088.04;;;9.35;100.00
75247;BME280;63844;50.042;19.224;2024-03-22T05:09:51;99089.66;;;9.35;100.00
75247;BME280;63844;50.042;19.224;2024-03-22T05:11:27;99092.23;;;9.36;100.00
75247;BME280;63844;50.042;19.224;2024-03-22T05:13:03;99090.63;;;9.36;100.00
75247;BME280;63844;50.042;19.224;2024-03-22T05:14:40;99088.20;;;9.35;100.00
75247;BME280;63844;50.042;19.224;2024-03-22T05:16:16;99087.10;;;9.36;100.00
75247;BME280;63844;50.042;19.224;2024-03-22T05:17:53;99089.48;;;9.35;100.00
75247;BME280;63844;50.042;19.224;2024-03-22T05:19:30;99092.54;;;9.37;100.00
75247;BME280;63844;50.042;19.224;2024-03-22T05:21:07;99087.38;;;9.38;100.00
75247;BME280;63844;50.042;19.224;2024-03-22T05:22:44;99084.52;;;9.38;100.00
75247;BME280;63844;50.042;19.224;2024-03-22T05:24:20;99082.39;;;9.38;100.00
75247;BME280;63844;50.042;19.224;2024-03-22T05:25:56;99081.20;;;9.40;100.00
75247;BME280;63844;50.042;19.224;2024-03-22T05:27:33;99080.77;;;9.41;100.00
75247;BME280;63844;50.042;19.224;2024-03-22T05:29:10;99083.92;;;9.42;100.00
75247;BME280;63844;50.042;19.224;2024-03-22T05:30:47;99087.41;;;9.43;100.00
75247;BME280;63844;50.042;19.224;2024-03-22T05:32:24;99088.27;;;9.43;100.00
75247;BME280;63844;50.042;19.224;2024-03-22T05:34:01;99092.04;;;9.45;100.00
75247;BME280;63844;50.042;19.224;2024-03-22T05:35:38;99093.60;;;9.46;100.00
75247;BME280;63844;50.042;19.224;2024-03-22T05:37:14;99099.86;;;9.47;100.00
75247;BME280;63844;50.042;19.224;2024-03-22T05:38:50;99096.45;;;9.48;100.00
75247;BME280;63844;50.042;19.224;2024-03-22T05:40:27;99097.05;;;9.50;100.00
75247;BME280;63844;50.042;19.224;2024-03-22T05:42:03;99100.08;;;9.53;100.00
75247;BME280;63844;50.042;19.224;2024-03-22T05:43:39;99097.51;;;9.54;100.00
75247;BME280;63844;50.042;19.224;2024-03-22T05:45:16;99101.07;;;9.54;100.00
75247;BME280;63844;50.042;19.224;2024-03-22T05:46:52;99099.45;;;9.51;100.00
75247;BME280;63844;50.042;19.224;2024-03-22T05:48:28;99100.94;;;9.53;100.00
75247;BME280;63844;50.042;19.224;2024-03-22T05:50:06;99102.61;;;9.55;100.00
75247;BME280;63844;50.042;19.224;2024-03-22T05:51:45;99104.98;;;9.56;100.00
75247;BME280;63844;50.042;19.224;2024-03-22T05:53:21;99102.17;;;9.56;100.00
75247;BME280;63844;50.042;19.224;2024-03-22T05:54:58;99103.48;;;9.55;100.00
75247;BME280;63844;50.042;19.224;2024-03-22T05:56:34;99107.70;;;9.55;100.00
75247;BME280;63844;50.042;19.224;2024-03-22T05:58:10;99101.96;;;9.56;100.00
75247;BME280;63844;50.042;19.224;2024-03-22T05:59:47;99100.31;;;9.57;100.00
75247;BME280;63844;50.042;19.224;2024-03-22T06:01:25;99098.17;;;9.58;100.00
75247;BME280;63844;50.042;19.224;2024-03-22T06:03:01;99093.59;;;9.60;100.00
75247;BME280;63844;50.042;19.224;2024-03-22T06:04:38;99096.39;;;9.61;100.00
75247;BME280;63844;50.042;19.224;2024-03-22T06:06:15;99095.48;;;9.61;100.00
75247;BME280;63844;50.042;19.224;2024-03-22T06:07:52;99091.89;;;9.62;100.00
75247;BME280;63844;50.042;19.224;2024-03-22T06:09:29;99086.86;;;9.61;100.00
75247;BME280;63844;50.042;19.224;2024-03-22T06:11:22;99087.10;;;9.62;100.00
75247;BME280;63844;50.042;19.224;2024-03-22T06:12:58;99088.94;;;9.64;100.00
75247;BME280;63844;50.042;19.224;2024-03-22T06:14:34;99086.40;;;9.65;100.00
75247;BME280;63844;50.042;19.224;2024-03-22T06:16:11;99089.69;;;9.63;99.73
75247;BME280;63844;50.042;19.224;2024-03-22T06:17:47;99085.80;;;9.63;99.90
75247;BME280;63844;50.042;19.224;2024-03-22T06:19:24;99087.38;;;9.61;99.34
75247;BME280;63844;50.042;19.224;2024-03-22T06:21:00;99086.98;;;9.59;99.62
75247;BME280;63844;50.042;19.224;2024-03-22T06:22:37;99088.71;;;9.59;99.51
75247;BME280;63844;50.042;19.224;2024-03-22T06:24:13;99089.20;;;9.57;98.77
75247;BME280;63844;50.042;19.224;2024-03-22T06:25:53;99089.60;;;9.56;98.13
75247;BME280;63844;50.042;19.224;2024-03-22T06:27:29;99093.80;;;9.54;97.88
75247;BME280;63844;50.042;19.224;2024-03-22T06:29:06;99089.52;;;9.52;97.24
75247;BME280;63844;50.042;19.224;2024-03-22T06:30:42;99090.02;;;9.52;96.85
75247;BME280;63844;50.042;19.224;2024-03-22T06:32:19;99089.80;;;9.50;96.95
75247;BME280;63844;50.042;19.224;2024-03-22T06:33:55;99098.61;;;9.47;96.99
75247;BME280;63844;50.042;19.224;2024-03-22T06:35:38;99098.27;;;9.44;97.51
75247;BME280;63844;50.042;19.224;2024-03-22T06:37:14;99099.44;;;9.42;97.37
75247;BME280;63844;50.042;19.224;2024-03-22T06:38:50;99099.94;;;9.43;97.37
75247;BME280;63844;50.042;19.224;2024-03-22T06:40:27;99099.66;;;9.41;97.38
75247;BME280;63844;50.042;19.224;2024-03-22T06:42:03;99098.39;;;9.42;97.53
75247;BME280;63844;50.042;19.224;2024-03-22T06:43:40;99098.05;;;9.42;97.21
75247;BME280;63844;50.042;19.224;2024-03-22T06:45:17;99098.28;;;9.41;97.22
75247;BME280;63844;50.042;19.224;2024-03-22T06:46:53;99100.34;;;9.39;97.08
75247;BME280;63844;50.042;19.224;2024-03-22T06:48:30;99103.02;;;9.42;97.08
75247;BME280;63844;50.042;19.224;2024-03-22T06:50:07;99106.94;;;9.41;97.20
75247;BME280;63844;50.042;19.224;2024-03-22T06:51:43;99108.01;;;9.41;97.27
75247;BME280;63844;50.042;19.224;2024-03-22T06:53:19;99101.04;;;9.42;96.51
75247;BME280;63844;50.042;19.224;2024-03-22T06:54:56;99101.98;;;9.39;95.77
75247;BME280;63844;50.042;19.224;2024-03-22T06:56:32;99099.45;;;9.42;95.77
75247;BME280;63844;50.042;19.224;2024-03-22T06:58:08;99099.13;;;9.42;95.47
75247;BME280;63844;50.042;19.224;2024-03-22T06:59:45;99095.94;;;9.45;94.88
75247;BME280;63844;50.042;19.224;2024-03-22T07:01:21;99098.45;;;9.47;94.38
75247;BME280;63844;50.042;19.224;2024-03-22T07:02:57;99097.83;;;9.46;93.71
75247;BME280;63844;50.042;19.224;2024-03-22T07:04:36;99097.42;;;9.47;93.28
75247;BME280;63844;50.042;19.224;2024-03-22T07:06:14;99098.84;;;9.47;93.24
75247;BME280;63844;50.042;19.224;2024-03-22T07:07:50;99095.17;;;9.49;92.51
75247;BME280;63844;50.042;19.224;2024-03-22T07:09:29;99094.95;;;9.47;92.14
75247;BME280;63844;50.042;19.224;2024-03-22T07:11:08;99092.89;;;9.46;91.91
75247;BME280;63844;50.042;19.224;2024-03-22T07:12:45;99090.90;;;9.47;92.04
75247;BME280;63844;50.042;19.224;2024-03-22T07:14:21;99088.45;;;9.46;92.14
75247;BME280;63844;50.042;19.224;2024-03-22T07:16:01;99087.94;;;9.46;92.40
75247;BME280;63844;50.042;19.224;2024-03-22T07:17:37;99088.84;;;9.45;92.34
75247;BME280;63844;50.042;19.224;2024-03-22T07:19:14;99086.43;;;9.44;91.87
75247;BME280;63844;50.042;19.224;2024-03-22T07:20:50;99090.66;;;9.45;92.18
75247;BME280;63844;50.042;19.224;2024-03-22T07:22:27;99095.27;;;9.45;91.64
75247;BME280;63844;50.042;19.224;2024-03-22T07:24:03;99096.11;;;9.42;91.71
75247;BME280;63844;50.042;19.224;2024-03-22T07:25:39;99102.50;;;9.41;91.36
75247;BME280;63844;50.042;19.224;2024-03-22T07:27:18;99100.26;;;9.44;91.38
75247;BME280;63844;50.042;19.224;2024-03-22T07:28:55;99096.71;;;9.41;91.14
75247;BME280;63844;50.042;19.224;2024-03-22T07:30:31;99098.59;;;9.42;91.26
75247;BME280;63844;50.042;19.224;2024-03-22T07:32:08;99100.72;;;9.41;91.02
75247;BME280;63844;50.042;19.224;2024-03-22T07:33:44;99098.69;;;9.43;91.02
75247;BME280;63844;50.042;19.224;2024-03-22T07:35:20;99094.69;;;9.45;90.98
75247;BME280;63844;50.042;19.224;2024-03-22T07:36:58;99096.80;;;9.45;90.88
75247;BME280;63844;50.042;19.224;2024-03-22T07:38:34;99096.98;;;9.45;90.88
75247;BME280;63844;50.042;19.224;2024-03-22T07:40:10;99090.67;;;9.47;90.66
75247;BME280;63844;50.042;19.224;2024-03-22T07:41:47;99088.48;;;9.49;90.99
75247;BME280;63844;50.042;19.224;2024-03-22T07:43:23;99087.67;;;9.47;90.50
75247;BME280;63844;50.042;19.224;2024-03-22T07:45:00;99085.40;;;9.47;90.56
75247;BME280;63844;50.042;19.224;2024-03-22T07:46:36;99081.92;;;9.49;90.56
75247;BME280;63844;50.042;19.224;2024-03-22T07:48:12;99082.37;;;9.50;90.27
75247;BME280;63844;50.042;19.224;2024-03-22T07:49:50;99079.84;;;9.51;90.29
75247;BME280;63844;50.042;19.224;2024-03-22T07:51:27;99085.04;;;9.53;90.14
75247;BME280;63844;50.042;19.224;2024-03-22T07:53:03;99085.27;;;9.52;90.39
75247;BME280;63844;50.042;19.224;2024-03-22T07:54:40;99085.04;;;9.53;90.45
75247;BME280;63844;50.042;19.224;2024-03-22T07:56:16;99079.01;;;9.56;90.29
75247;BME280;63844;50.042;19.224;2024-03-22T07:57:52;99079.73;;;9.58;89.89
75247;BME280;63844;50.042;19.224;2024-03-22T07:59:29;99075.19;;;9.61;90.07
75247;BME280;63844;50.042;19.224;2024-03-22T08:01:05;99070.34;;;9.65;90.12
75247;BME280;63844;50.042;19.224;2024-03-22T08:02:42;99074.79;;;9.64;89.96
75247;BME280;63844;50.042;19.224;2024-03-22T08:04:18;99072.69;;;9.70;89.88
75247;BME280;63844;50.042;19.224;2024-03-22T08:05:54;99072.38;;;9.72;90.12
75247;BME280;63844;50.042;19.224;2024-03-22T08:07:31;99071.58;;;9.74;90.06
75247;BME280;63844;50.042;19.224;2024-03-22T08:09:07;99069.42;;;9.74;89.66
75247;BME280;63844;50.042;19.224;2024-03-22T08:10:44;99068.66;;;9.75;89.65
75247;BME280;63844;50.042;19.224;2024-03-22T08:12:20;99069.30;;;9.74;89.20
75247;BME280;63844;50.042;19.224;2024-03-22T08:13:57;99068.17;;;9.72;89.32
75247;BME280;63844;50.042;19.224;2024-03-22T08:15:38;99065.20;;;9.69;89.59
75247;BME280;63844;50.042;19.224;2024-03-22T08:17:14;99067.23;;;9.70;89.83
75247;BME280;63844;50.042;19.224;2024-03-22T08:18:51;99064.02;;;9.67;89.83
75247;BME280;63844;50.042;19.224;2024-03-22T08:20:27;99064.20;;;9.70;89.71
75247;BME280;63844;50.042;19.224;2024-03-22T08:22:04;99064.16;;;9.68;89.90
75247;BME280;63844;50.042;19.224;2024-03-22T08:23:40;99063.27;;;9.71;89.70
75247;BME280;63844;50.042;19.224;2024-03-22T08:25:17;99063.08;;;9.71;89.69
75247;BME280;63844;50.042;19.224;2024-03-22T08:26:54;99064.17;;;9.71;89.86
75247;BME280;63844;50.042;19.224;2024-03-22T08:28:30;99068.38;;;9.74;90.17
75247;BME280;63844;50.042;19.224;2024-03-22T08:30:08;99071.52;;;9.75;90.21